Time;durP1;ratioP1;P1;durP2;ratioP2;P2;SDS_P1;SDS_P2;PMS_P1;PMS_P2;Temp;Humidity;BMP_temperature;BMP_pressure;BME280_temperature;BME280_humidity;BME280_pressure;Samples;Min_cycle;Max_cycle;Signal;HPM_P1;HPM_P2
2022/06/16 00:00:31;;;;;;;3.13;2.90;;;19.80;88.60;;;;;;5058823;28;20029;-84
2022/06/16 00:02:57;;;;;;;4.00;3.60;;;19.80;88.80;;;;;;5059959;28;20017;-84
2022/06/16 00:05:25;;;;;;;5.55;4.00;;;19.80;88.90;;;;;;5041796;28;20044;-85
2022/06/16 00:07:51;;;;;;;3.70;3.40;;;19.80;88.90;;;;;;5058315;28;20025;-84
2022/06/16 00:10:19;;;;;;;3.92;3.63;;;19.80;88.60;;;;;;5057073;28;20029;-81
2022/06/16 00:12:45;;;;;;;4.85;3.95;;;19.80;88.30;;;;;;5056864;28;20037;-81
2022/06/16 00:15:15;;;;;;;4.40;3.90;;;19.80;88.00;;;;;;5055036;28;20097;-83
2022/06/16 00:17:41;;;;;;;5.30;3.65;;;19.80;87.50;;;;;;5059562;28;20024;-83
2022/06/16 00:20:08;;;;;;;7.10;3.67;;;19.80;87.10;;;;;;5058964;28;20029;-83
2022/06/16 00:22:34;;;;;;;4.70;3.40;;;19.80;86.60;;;;;;5041577;28;20104;-84
2022/06/16 00:25:00;;;;;;;3.50;3.20;;;19.80;86.40;;;;;;5062657;28;20025;-83
2022/06/16 00:27:26;;;;;;;3.42;3.13;;;19.70;86.10;;;;;;5063637;28;20032;-83
2022/06/16 00:29:52;;;;;;;3.42;3.13;;;19.70;86.10;;;;;;5063495;28;20029;-83
2022/06/16 00:32:17;;;;;;;3.40;2.88;;;19.70;86.20;;;;;;5064372;28;20048;-84
2022/06/16 00:34:43;;;;;;;2.90;2.67;;;19.70;86.20;;;;;;5072848;28;20027;-83
2022/06/16 00:37:09;;;;;;;3.58;3.28;;;19.70;86.20;;;;;;5066844;28;20036;-84
2022/06/16 00:39:34;;;;;;;3.13;2.83;;;19.70;86.20;;;;;;5059984;28;20028;-85
2022/06/16 00:42:14;;;;;;;3.40;3.10;;;19.70;85.90;;;;;;5067511;28;20025;-84
2022/06/16 00:44:52;;;;;;;4.28;3.13;;;19.80;85.60;;;;;;5054666;28;20021;-85
2022/06/16 00:47:19;;;;;;;4.47;3.72;;;19.80;85.40;;;;;;5061558;28;20063;-84
2022/06/16 00:49:47;;;;;;;3.80;3.42;;;19.80;85.10;;;;;;5061277;28;20110;-83
2022/06/16 00:52:19;;;;;;;4.07;3.67;;;19.80;84.90;;;;;;5042258;28;20021;-84
2022/06/16 00:55:01;;;;;;;3.38;2.95;;;19.80;84.90;;;;;;5059788;28;20021;-84
2022/06/16 00:57:35;;;;;;;3.17;2.92;;;19.70;84.90;;;;;;5058466;28;20508;-84
2022/06/16 01:02:57;;;;;;;3.67;3.00;;;19.70;85.00;;;;;;5051097;28;20030;-84
2022/06/16 01:05:35;;;;;;;3.20;2.70;;;19.70;85.10;;;;;;5040453;28;20043;-84
2022/06/16 01:08:01;;;;;;;3.22;2.92;;;19.60;84.90;;;;;;5040731;28;20035;-84
2022/06/16 01:10:37;;;;;;;3.72;3.42;;;19.60;85.60;;;;;;5040931;28;20393;-84
2022/06/16 01:16:11;;;;;;;3.30;3.00;;;19.50;85.20;;;;;;5058885;28;20157;-84
2022/06/16 01:19:15;;;;;;;4.85;3.25;;;19.50;85.40;;;;;;5040229;28;20535;-84
2022/06/16 01:22:01;;;;;;;4.60;3.50;;;19.40;85.20;;;;;;5005048;28;20308;-84
2022/06/16 01:24:42;;;;;;;3.83;3.53;;;19.30;85.40;;;;;;5058327;28;20036;-83
2022/06/16 01:27:41;;;;;;;4.25;3.63;;;19.20;85.90;;;;;;5040792;28;20021;-84
2022/06/16 01:30:12;;;;;;;4.80;3.50;;;19.10;86.00;;;;;;5056757;28;20108;-83
2022/06/16 01:33:01;;;;;;;3.80;3.38;;;19.10;86.10;;;;;;5057432;28;20065;-84
2022/06/16 01:35:54;;;;;;;3.50;3.20;;;19.00;86.20;;;;;;5041177;28;20361;-85
2022/06/16 01:38:41;;;;;;;3.97;3.15;;;19.00;86.20;;;;;;5065978;28;20135;-83
2022/06/16 01:41:25;;;;;;;3.35;3.05;;;19.00;86.30;;;;;;5057639;28;20017;-85
2022/06/16 01:44:02;;;;;;;3.47;2.95;;;19.00;86.30;;;;;;5071974;28;20044;-83
2022/06/16 01:46:31;;;;;;;4.85;3.10;;;19.00;86.10;;;;;;5063316;28;20025;-84
2022/06/16 01:49:16;;;;;;;3.28;3.08;;;19.00;85.80;;;;;;5060723;28;20067;-83
2022/06/16 01:51:45;;;;;;;3.03;2.83;;;18.90;85.50;;;;;;5046530;28;20059;-85
2022/06/16 01:54:32;;;;;;;2.90;2.65;;;18.90;85.70;;;;;;5058246;28;20036;-84
2022/06/16 01:57:08;;;;;;;2.63;2.42;;;18.90;85.40;;;;;;5058398;28;20435;-85
2022/06/16 01:59:43;;;;;;;2.83;2.63;;;18.90;85.40;;;;;;5061705;28;20033;-84
2022/06/16 02:02:14;;;;;;;4.15;2.70;;;18.90;85.50;;;;;;5063530;28;20025;-84
2022/06/16 02:05:07;;;;;;;3.35;3.05;;;18.90;85.50;;;;;;5062158;28;20025;-85
2022/06/16 02:07:41;;;;;;;4.28;2.53;;;18.90;85.50;;;;;;5052760;28;20053;-85
2022/06/16 02:10:11;;;;;;;3.03;2.22;;;18.90;85.70;;;;;;5073957;28;20017;-86
2022/06/16 02:12:57;;;;;;;4.25;2.65;;;18.90;85.40;;;;;;5075611;28;20033;-83
2022/06/16 02:15:48;;;;;;;3.17;2.50;;;18.90;85.20;;;;;;5068855;28;20100;-85
2022/06/16 02:18:23;;;;;;;3.10;2.80;;;18.90;85.20;;;;;;5075707;28;20046;-82
2022/06/16 02:21:01;;;;;;;2.47;2.30;;;18.90;85.50;;;;;;5056941;28;20088;-82
2022/06/16 02:23:28;;;;;;;2.83;2.60;;;18.80;85.60;;;;;;5078620;28;20032;-81
2022/06/16 02:25:56;;;;;;;3.58;2.67;;;18.80;85.80;;;;;;5078047;28;20020;-83
2022/06/16 02:28:22;;;;;;;2.88;2.58;;;18.70;85.70;;;;;;5078163;28;20035;-84
2022/06/16 02:30:54;;;;;;;3.17;2.72;;;18.70;85.80;;;;;;5077569;28;20029;-82
2022/06/16 02:33:34;;;;;;;2.97;2.78;;;18.70;85.80;;;;;;5076980;28;20025;-84
2022/06/16 02:36:19;;;;;;;5.00;3.15;;;18.80;85.70;;;;;;5077257;28;20017;-82
2022/06/16 02:38:45;;;;;;;2.90;2.70;;;18.80;85.70;;;;;;5056914;28;20021;-82
2022/06/16 02:41:30;;;;;;;2.88;2.67;;;18.80;85.60;;;;;;5051136;28;20107;-82
2022/06/16 02:44:08;;;;;;;2.90;2.70;;;18.80;85.80;;;;;;5064213;28;20024;-84
2022/06/16 02:47:18;;;;;;;2.67;2.47;;;18.80;85.90;;;;;;5043134;28;20036;-83
2022/06/16 02:49:57;;;;;;;2.65;2.35;;;18.80;86.00;;;;;;5022877;28;20093;-84
2022/06/16 02:52:39;;;;;;;2.90;2.53;;;18.70;86.10;;;;;;5043597;28;20036;-84
2022/06/16 02:55:11;;;;;;;2.92;2.35;;;18.70;86.30;;;;;;5044269;28;20082;-84
2022/06/16 02:57:40;;;;;;;2.85;2.65;;;18.60;86.50;;;;;;5063218;28;20017;-84
2022/06/16 03:00:10;;;;;;;2.63;2.42;;;18.60;86.60;;;;;;5062659;28;20108;-84
2022/06/16 03:02:39;;;;;;;2.95;2.60;;;18.60;86.50;;;;;;5064311;28;20036;-85
2022/06/16 03:05:05;;;;;;;2.88;2.63;;;18.60;86.40;;;;;;5044214;28;20017;-85
2022/06/16 03:07:33;;;;;;;3.10;2.90;;;18.60;86.70;;;;;;5044139;28;20094;-84
2022/06/16 03:10:04;;;;;;;2.35;2.15;;;18.60;86.80;;;;;;5060508;28;20017;-84
2022/06/16 03:12:29;;;;;;;2.45;2.25;;;18.60;86.80;;;;;;5047131;28;20137;-84
2022/06/16 03:14:55;;;;;;;2.50;2.30;;;18.50;87.00;;;;;;5043796;28;20025;-84
2022/06/16 03:17:21;;;;;;;2.50;2.30;;;18.50;87.10;;;;;;5061250;28;20036;-84
2022/06/16 03:19:46;;;;;;;2.30;2.10;;;18.40;87.10;;;;;;5060320;28;20040;-84
2022/06/16 03:22:12;;;;;;;2.95;2.45;;;18.40;87.20;;;;;;5064482;28;20021;-85
2022/06/16 03:24:38;;;;;;;3.22;2.60;;;18.40;87.50;;;;;;5061302;28;20037;-84
2022/06/16 03:27:05;;;;;;;3.30;3.00;;;18.40;87.50;;;;;;5042678;28;20021;-85
2022/06/16 03:29:31;;;;;;;4.32;3.22;;;18.40;87.60;;;;;;5042587;28;20108;-84
2022/06/16 03:31:57;;;;;;;2.65;2.45;;;18.30;87.70;;;;;;5059975;28;20063;-85
2022/06/16 03:34:23;;;;;;;2.90;2.70;;;18.30;87.90;;;;;;5059987;28;20028;-84
2022/06/16 03:36:49;;;;;;;3.30;2.88;;;18.30;87.90;;;;;;5058556;28;20018;-85
2022/06/16 03:39:15;;;;;;;3.67;2.67;;;18.30;87.70;;;;;;5058548;28;20036;-83
2022/06/16 03:41:40;;;;;;;3.25;2.90;;;18.30;87.70;;;;;;5058102;28;20032;-84
2022/06/16 03:44:06;;;;;;;2.92;2.63;;;18.40;87.70;;;;;;5058030;28;20470;-85
2022/06/16 03:46:32;;;;;;;2.78;2.58;;;18.40;87.70;;;;;;5058608;28;20387;-84
2022/06/16 03:49:00;;;;;;;2.60;2.40;;;18.40;87.60;;;;;;5040279;28;20047;-84
2022/06/16 03:51:25;;;;;;;2.90;2.70;;;18.40;87.50;;;;;;5058101;28;20028;-83
2022/06/16 03:53:51;;;;;;;3.50;2.78;;;18.40;87.20;;;;;;5058376;28;20055;-84
2022/06/16 03:56:17;;;;;;;2.35;2.13;;;18.40;87.30;;;;;;5040420;28;20051;-83
2022/06/16 03:58:42;;;;;;;3.55;3.08;;;18.50;87.20;;;;;;5041283;28;20033;-82
2022/06/16 04:01:08;;;;;;;4.78;3.05;;;18.60;87.00;;;;;;5059453;28;20025;-83
2022/06/16 04:06:19;;;;;;;3.67;2.70;;;18.60;86.70;;;;;;5060186;28;20492;-83
2022/06/16 04:08:46;;;;;;;3.00;2.80;;;18.70;86.30;;;;;;5065411;28;20036;-83
2022/06/16 04:11:26;;;;;;;3.15;2.85;;;18.70;86.10;;;;;;5073595;28;20061;-83
2022/06/16 04:13:56;;;;;;;3.20;2.70;;;18.80;85.90;;;;;;5064727;28;20040;-84
2022/06/16 04:16:22;;;;;;;4.20;3.42;;;18.90;85.80;;;;;;5061112;28;20021;-83
2022/06/16 04:18:48;;;;;;;3.60;2.75;;;19.00;85.40;;;;;;5071465;28;20032;-84
2022/06/16 04:21:14;;;;;;;4.38;3.15;;;19.10;84.60;;;;;;5072209;28;20036;-83
2022/06/16 04:23:40;;;;;;;4.03;2.70;;;19.20;84.00;;;;;;5048732;28;20028;-84
2022/06/16 04:26:06;;;;;;;3.97;2.63;;;19.40;83.30;;;;;;5044908;28;20035;-84
2022/06/16 04:28:32;;;;;;;4.50;3.03;;;19.60;82.60;;;;;;5042733;28;20608;-83
2022/06/16 04:30:58;;;;;;;3.40;2.90;;;19.60;81.90;;;;;;5059919;28;20037;-83
2022/06/16 04:33:24;;;;;;;4.18;2.92;;;19.70;81.40;;;;;;5059439;28;20025;-84
2022/06/16 04:35:51;;;;;;;4.40;2.78;;;19.80;81.20;;;;;;5068870;28;20064;-83
2022/06/16 04:38:17;;;;;;;2.42;2.22;;;19.80;80.90;;;;;;5057080;28;20037;-85
2022/06/16 04:40:43;;;;;;;2.88;2.53;;;19.70;80.70;;;;;;5074326;28;20078;-83
2022/06/16 04:43:09;;;;;;;2.45;2.25;;;19.70;80.50;;;;;;5074004;28;20013;-84
2022/06/16 04:45:34;;;;;;;2.28;2.08;;;19.80;80.60;;;;;;5042756;28;20021;-83
2022/06/16 04:48:00;;;;;;;2.50;2.30;;;19.80;80.50;;;;;;5059624;28;20078;-83
2022/06/16 04:50:26;;;;;;;3.80;2.75;;;19.90;80.30;;;;;;5057881;28;20029;-83
2022/06/16 04:52:52;;;;;;;2.85;2.58;;;19.90;80.20;;;;;;5058348;28;20016;-85
2022/06/16 04:55:17;;;;;;;2.78;2.58;;;20.00;80.20;;;;;;5042151;28;20029;-82
2022/06/16 04:57:43;;;;;;;2.53;2.33;;;20.00;79.80;;;;;;5060371;28;20029;-82
2022/06/16 05:00:13;;;;;;;3.25;3.00;;;20.20;79.30;;;;;;5040562;28;20025;-81
2022/06/16 05:02:39;;;;;;;3.67;2.70;;;20.40;78.70;;;;;;5062484;28;20076;-82
2022/06/16 05:05:06;;;;;;;3.90;2.90;;;20.50;77.70;;;;;;5060949;28;20041;-82
2022/06/16 05:07:32;;;;;;;3.92;2.80;;;20.80;77.40;;;;;;5060199;28;20108;-82
2022/06/16 05:09:57;;;;;;;2.50;2.30;;;22.20;75.10;;;;;;5041619;28;20464;-82
2022/06/16 05:12:23;;;;;;;3.03;2.60;;;24.60;69.60;;;;;;5041950;28;20033;-82
2022/06/16 05:14:49;;;;;;;2.55;2.40;;;26.60;61.20;;;;;;5041625;28;20021;-83
2022/06/16 05:17:20;;;;;;;2.45;2.25;;;27.00;57.90;;;;;;5039520;28;20059;-86
2022/06/16 05:19:46;;;;;;;2.58;2.38;;;27.20;57.60;;;;;;5075602;22;20048;-82
2022/06/16 05:22:18;;;;;;;2.45;2.25;;;28.50;55.40;;;;;;5053059;28;20033;-82
2022/06/16 05:24:48;;;;;;;2.15;1.90;;;30.20;52.40;;;;;;5026444;28;20044;-81
2022/06/16 05:27:15;;;;;;;2.28;2.08;;;31.00;49.10;;;;;;5014380;28;20025;-82
2022/06/16 05:29:53;;;;;;;2.40;2.20;;;31.40;48.00;;;;;;5063381;28;20035;-81
2022/06/16 05:32:21;;;;;;;2.58;2.38;;;31.90;46.70;;;;;;5062708;28;20028;-82
2022/06/16 05:34:49;;;;;;;2.05;1.95;;;32.10;46.70;;;;;;5045165;28;20035;-82
2022/06/16 05:37:18;;;;;;;1.85;1.73;;;32.90;45.40;;;;;;5044316;28;20089;-83
2022/06/16 05:39:47;;;;;;;2.15;1.88;;;33.80;44.70;;;;;;5065766;28;20024;-82
2022/06/16 05:42:13;;;;;;;2.08;1.98;;;34.80;43.90;;;;;;5067253;28;20084;-82
2022/06/16 05:44:39;;;;;;;2.33;2.13;;;35.60;41.80;;;;;;5062293;28;20067;-83
2022/06/16 05:47:05;;;;;;;1.80;1.70;;;36.30;41.10;;;;;;5072114;28;20029;-82
2022/06/16 05:49:33;;;;;;;1.70;1.60;;;36.80;40.10;;;;;;5063290;28;20020;-84
2022/06/16 05:52:01;;;;;;;2.05;1.90;;;37.30;39.30;;;;;;5067693;28;20025;-84
2022/06/16 05:54:28;;;;;;;2.45;2.10;;;37.70;38.60;;;;;;5041375;28;20032;-84
2022/06/16 05:56:53;;;;;;;2.10;2.00;;;38.30;38.10;;;;;;5043788;28;20028;-85
2022/06/16 05:59:19;;;;;;;1.95;1.85;;;37.60;37.30;;;;;;5069294;28;20029;-84
2022/06/16 06:01:45;;;;;;;1.80;1.70;;;35.70;38.40;;;;;;5070989;28;20032;-84
2022/06/16 06:04:11;;;;;;;1.70;1.60;;;34.40;41.40;;;;;;5073406;28;20021;-85
2022/06/16 06:06:37;;;;;;;4.47;1.90;;;34.90;41.10;;;;;;5073216;28;20017;-85
2022/06/16 06:17:22;;;;;;;2.17;1.98;;;34.50;40.10;;;;;;5066126;28;20035;-85
2022/06/16 06:19:49;;;;;;;5.38;2.55;;;33.20;41.60;;;;;;5036907;28;20033;-85
2022/06/16 06:22:19;;;;;;;2.65;2.45;;;32.20;42.80;;;;;;5036464;28;20110;-85
2022/06/16 06:24:47;;;;;;;3.38;2.20;;;30.80;44.40;;;;;;5024792;28;20021;-84
2022/06/16 06:27:18;;;;;;;2.47;2.28;;;30.00;46.30;;;;;;5037883;28;20025;-84
2022/06/16 06:29:45;;;;;;;3.65;2.80;;;29.40;47.50;;;;;;5055816;28;20017;-84
2022/06/16 06:32:12;;;;;;;3.72;2.67;;;29.70;48.40;;;;;;5056303;28;20029;-85
2022/06/16 06:34:38;;;;;;;2.50;2.30;;;30.80;46.30;;;;;;5056077;28;20021;-86
2022/06/16 06:37:05;;;;;;;3.15;2.83;;;30.40;46.50;;;;;;5037755;28;20179;-86
2022/06/16 06:39:31;;;;;;;7.13;3.30;;;29.70;47.30;;;;;;5038945;28;20075;-86
2022/06/16 06:41:57;;;;;;;3.70;3.15;;;28.80;48.60;;;;;;5055900;28;20454;-85
2022/06/16 06:44:23;;;;;;;2.75;2.40;;;28.80;49.60;;;;;;5062463;28;20056;-84
2022/06/16 06:46:49;;;;;;;5.25;2.65;;;30.40;48.90;;;;;;5081774;28;20001;-83
2022/06/16 06:49:15;;;;;;;2.92;2.67;;;32.20;45.70;;;;;;5065103;28;20079;-85
2022/06/16 06:51:44;;;;;;;5.40;2.92;;;31.80;45.10;;;;;;5066459;28;20020;-84
2022/06/16 06:54:10;;;;;;;5.38;3.17;;;30.70;46.10;;;;;;5049710;28;20021;-85
2022/06/16 06:56:35;;;;;;;4.25;3.10;;;29.70;48.00;;;;;;5059722;28;20040;-85
2022/06/16 06:59:05;;;;;;;4.88;3.67;;;28.90;49.40;;;;;;5059128;28;20021;-85
2022/06/16 07:01:31;;;;;;;4.53;3.10;;;28.30;51.50;;;;;;5061740;28;20029;-85
2022/06/16 07:03:56;;;;;;;5.80;3.17;;;29.00;51.70;;;;;;5042588;28;20028;-85
2022/06/16 07:06:22;;;;;;;7.20;3.40;;;31.30;48.30;;;;;;5061241;28;20029;-85
2022/06/16 07:08:48;;;;;;;5.45;3.10;;;31.00;47.10;;;;;;5059666;28;20066;-86
2022/06/16 07:11:14;;;;;;;3.97;2.70;;;30.10;48.40;;;;;;5062132;28;20028;-85
2022/06/16 07:13:41;;;;;;;7.57;3.50;;;29.00;50.00;;;;;;5059421;28;20438;-84
2022/06/16 07:16:07;;;;;;;11.00;3.33;;;28.10;51.90;;;;;;5062719;28;20028;-85
2022/06/16 07:18:33;;;;;;;4.35;3.20;;;27.20;53.80;;;;;;5070436;28;20023;-84
2022/06/16 07:20:59;;;;;;;4.45;3.03;;;26.50;55.70;;;;;;5059077;28;20044;-86
2022/06/16 07:23:26;;;;;;;5.80;3.42;;;26.00;57.20;;;;;;5062893;28;20045;-85
2022/06/16 07:25:53;;;;;;;7.95;3.50;;;25.70;58.20;;;;;;5059997;28;20470;-85
2022/06/16 07:28:20;;;;;;;12.15;4.20;;;25.70;58.90;;;;;;5061581;28;20040;-85
2022/06/16 07:30:46;;;;;;;9.57;3.35;;;25.70;59.20;;;;;;5059870;28;20506;-85
2022/06/16 07:33:12;;;;;;;11.32;3.55;;;25.60;59.50;;;;;;5059525;28;20017;-86
2022/06/16 07:35:41;;;;;;;5.82;2.97;;;25.50;60.00;;;;;;5059128;28;20104;-85
2022/06/16 07:38:08;;;;;;;5.25;3.40;;;25.40;60.40;;;;;;5062398;28;20050;-84
2022/06/16 07:40:34;;;;;;;7.40;3.60;;;25.20;61.00;;;;;;5060922;28;20021;-85
2022/06/16 07:43:00;;;;;;;7.32;3.30;;;25.00;61.30;;;;;;5046019;28;20028;-85
2022/06/16 07:45:29;;;;;;;5.97;3.58;;;24.90;61.70;;;;;;5075179;28;20055;-84
2022/06/16 07:47:57;;;;;;;6.95;3.50;;;24.80;62.30;;;;;;5087443;28;20076;-84
2022/06/16 07:50:23;;;;;;;7.82;3.28;;;24.70;63.20;;;;;;5093629;28;20028;-84
2022/06/16 07:52:50;;;;;;;5.30;3.17;;;24.60;63.70;;;;;;5089412;28;20027;-84
2022/06/16 07:55:18;;;;;;;8.15;2.95;;;24.80;64.20;;;;;;5088663;28;20037;-84
2022/06/16 07:57:47;;;;;;;6.82;3.22;;;25.30;63.00;;;;;;5073745;28;20029;-84
2022/06/16 08:00:18;;;;;;;9.75;4.35;;;25.50;61.80;;;;;;5090989;28;20024;-84
2022/06/16 08:02:44;;;;;;;6.15;3.38;;;25.60;61.30;;;;;;5086960;28;20076;-84
2022/06/16 08:05:11;;;;;;;8.70;3.28;;;25.60;61.30;;;;;;5048778;28;20143;-85
2022/06/16 08:07:37;;;;;;;6.32;3.22;;;25.80;61.10;;;;;;5065516;28;20044;-85
2022/06/16 08:10:05;;;;;;;5.88;3.33;;;25.80;61.10;;;;;;5062982;28;20029;-85
2022/06/16 08:12:31;;;;;;;5.43;2.97;;;25.80;60.80;;;;;;5061011;28;20025;-85
2022/06/16 08:14:57;;;;;;;5.55;3.42;;;25.80;60.80;;;;;;5063972;28;20025;-85
2022/06/16 08:17:31;;;;;;;6.00;3.00;;;25.90;60.20;;;;;;5075601;28;20035;-85
2022/06/16 08:19:57;;;;;;;6.97;3.95;;;25.90;60.10;;;;;;5058432;28;20032;-85
2022/06/16 08:22:23;;;;;;;8.68;3.42;;;25.90;60.30;;;;;;5042133;28;20075;-84
2022/06/16 08:24:49;;;;;;;11.80;3.40;;;26.20;59.50;;;;;;5040250;28;20074;-85
2022/06/16 08:27:18;;;;;;;7.03;3.95;;;26.70;58.50;;;;;;5061122;28;20021;-85
2022/06/16 08:29:45;;;;;;;5.25;3.00;;;27.00;58.00;;;;;;5058753;28;20066;-85
2022/06/16 08:32:13;;;;;;;6.63;3.40;;;27.30;57.30;;;;;;5058417;28;20021;-85
2022/06/16 08:34:39;;;;;;;6.13;3.75;;;27.50;55.40;;;;;;5039732;28;20025;-86
2022/06/16 08:37:05;;;;;;;4.30;2.72;;;27.60;54.40;;;;;;5039630;28;20047;-85
2022/06/16 08:39:30;;;;;;;8.48;3.78;;;27.70;54.80;;;;;;5058577;28;20081;-84
2022/06/16 08:42:08;;;;;;;9.20;3.80;;;27.80;54.00;;;;;;5040047;28;20062;-84
2022/06/16 08:44:46;;;;;;;5.63;3.30;;;27.80;53.90;;;;;;5057398;28;20082;-84
2022/06/16 08:47:40;;;;;;;7.63;3.40;;;27.70;52.70;;;;;;5065250;28;20121;-85
2022/06/16 08:50:23;;;;;;;5.03;3.47;;;27.40;52.80;;;;;;5036926;28;20104;-84
2022/06/16 08:53:17;;;;;;;7.50;3.20;;;27.40;53.40;;;;;;5019680;28;20025;-88
2022/06/16 08:55:55;;;;;;;4.25;3.13;;;27.40;53.70;;;;;;5020093;28;20070;-86
2022/06/16 08:58:37;;;;;;;6.07;3.00;;;27.50;53.80;;;;;;5037286;28;20030;-85
2022/06/16 09:01:12;;;;;;;5.88;3.33;;;27.40;54.80;;;;;;5037996;28;20497;-85
2022/06/16 09:04:10;;;;;;;9.13;3.58;;;27.40;55.50;;;;;;5035695;28;20120;-85
2022/06/16 09:07:00;;;;;;;7.50;3.30;;;27.50;56.10;;;;;;5036109;28;20045;-85
2022/06/16 09:12:57;;;;;;;7.47;3.72;;;27.60;56.60;;;;;;5037436;28;20091;-85
2022/06/16 09:15:46;;;;;;;7.32;3.10;;;27.80;56.30;;;;;;5037476;28;20476;-85
2022/06/16 09:18:29;;;;;;;7.13;3.75;;;28.00;55.70;;;;;;5046908;28;20033;-85
2022/06/16 09:20:58;;;;;;;5.40;3.22;;;28.40;54.90;;;;;;5059489;28;20021;-86
2022/06/16 09:23:41;;;;;;;9.10;3.40;;;28.80;54.70;;;;;;5040789;28;20075;-85
2022/06/16 09:26:12;;;;;;;7.53;3.65;;;29.20;53.50;;;;;;5057794;28;20099;-84
2022/06/16 09:28:50;;;;;;;4.55;3.05;;;29.60;52.40;;;;;;5057982;28;20308;-84
2022/06/16 09:31:23;;;;;;;6.63;3.50;;;30.10;52.30;;;;;;5057335;28;20477;-85
2022/06/16 09:34:00;;;;;;;4.65;3.53;;;30.40;51.10;;;;;;5039267;28;20507;-85
2022/06/16 09:36:31;;;;;;;5.72;3.88;;;30.40;50.70;;;;;;5057201;28;20025;-85
2022/06/16 09:39:05;;;;;;;9.05;2.97;;;30.20;50.40;;;;;;5057748;28;20053;-84
2022/06/16 09:44:45;;;;;;;8.77;3.30;;;29.50;50.40;;;;;;5058926;28;20050;-84
2022/06/16 09:47:16;;;;;;;8.77;3.33;;;29.20;51.50;;;;;;5067645;28;20408;-85
2022/06/16 09:49:54;;;;;;;8.25;3.75;;;29.40;51.60;;;;;;5059987;28;20084;-85
2022/06/16 09:52:52;;;;;;;9.25;3.80;;;29.40;52.00;;;;;;5041414;28;20033;-85
2022/06/16 09:55:35;;;;;;;4.05;3.20;;;29.50;52.00;;;;;;5039625;28;20025;-84
2022/06/16 09:58:22;;;;;;;3.97;3.55;;;29.40;52.50;;;;;;5041125;28;20545;-85
2022/06/16 10:00:50;;;;;;;6.95;3.28;;;29.30;52.60;;;;;;5055596;28;20029;-85
2022/06/16 10:03:24;;;;;;;5.88;3.90;;;29.30;52.80;;;;;;5057191;28;20032;-85
2022/06/16 10:06:15;;;;;;;5.70;3.33;;;29.30;52.70;;;;;;5055969;28;20025;-85
2022/06/16 10:08:55;;;;;;;6.70;3.25;;;29.30;53.40;;;;;;5063640;28;20041;-86
2022/06/16 10:11:32;;;;;;;9.98;3.15;;;29.50;53.20;;;;;;5065525;28;20021;-85
2022/06/16 10:14:13;;;;;;;5.35;3.00;;;29.70;52.90;;;;;;5063601;28;20025;-85
2022/06/16 10:16:59;;;;;;;7.60;3.05;;;29.80;52.90;;;;;;5063635;28;20031;-85
2022/06/16 10:19:28;;;;;;;7.28;3.47;;;29.90;52.30;;;;;;5045596;28;20474;-85
2022/06/16 10:21:54;;;;;;;5.50;3.30;;;29.80;52.90;;;;;;5063697;28;20044;-85
2022/06/16 10:24:24;;;;;;;8.48;3.45;;;29.60;53.20;;;;;;5062899;28;20124;-86
2022/06/16 10:26:50;;;;;;;7.90;3.65;;;29.60;53.70;;;;;;5067159;28;20029;-85
2022/06/16 10:29:26;;;;;;;8.48;3.60;;;29.40;53.80;;;;;;5066901;28;21509;-85
2022/06/16 10:31:54;;;;;;;5.53;3.80;;;29.10;53.90;;;;;;5064366;28;20033;-85
2022/06/16 10:34:36;;;;;;;6.03;3.85;;;28.60;54.90;;;;;;5041058;28;20032;-85
2022/06/16 10:37:02;;;;;;;;;;;28.30;55.70;;;;;;5064290;28;20071;-84
2022/06/16 10:39:54;;;;;;;9.50;3.60;;;28.00;56.50;;;;;;5076183;28;19917;-85
2022/06/16 10:42:42;;;;;;;8.48;3.50;;;27.60;57.90;;;;;;5063748;28;20029;-85
2022/06/16 10:45:13;;;;;;;6.32;3.22;;;27.20;59.70;;;;;;5059663;28;20107;-85
2022/06/16 10:47:49;;;;;;;8.95;2.80;;;27.00;56.30;;;;;;5069314;28;20355;-86
2022/06/16 10:50:21;;;;;;;3.25;2.95;;;26.90;56.30;;;;;;5071199;28;20025;-86
2022/06/16 10:52:53;;;;;;;5.32;2.85;;;26.80;56.40;;;;;;5042005;28;20032;-86
2022/06/16 10:55:25;;;;;;;6.57;3.28;;;27.10;55.80;;;;;;5058598;28;20485;-85
2022/06/16 10:57:50;;;;;;;;;;;27.40;54.50;;;;;;5060016;28;20370;-85
2022/06/16 11:00:22;;;;;;;7.55;3.20;;;27.80;53.60;;;;;;5063306;28;19924;-85
2022/06/16 11:03:00;;;;;;;5.80;3.17;;;28.20;52.40;;;;;;5070746;28;20031;-85
2022/06/16 11:05:28;;;;;;;4.80;2.85;;;28.50;51.80;;;;;;5047790;28;20025;-85
2022/06/16 11:08:08;;;;;;;7.55;3.47;;;28.90;52.00;;;;;;5061069;28;20021;-85
2022/06/16 11:10:37;;;;;;;7.60;3.40;;;29.20;51.80;;;;;;5060048;28;20059;-85
2022/06/16 11:13:03;;;;;;;6.53;2.88;;;29.30;52.70;;;;;;5058613;28;20434;-85
2022/06/16 11:15:35;;;;;;;8.38;3.42;;;29.50;53.00;;;;;;5042416;28;20029;-85
2022/06/16 11:18:04;;;;;;;8.40;3.55;;;29.70;52.70;;;;;;5070514;28;20051;-85
2022/06/16 11:20:40;;;;;;;5.10;3.08;;;29.90;52.20;;;;;;5082989;22;20045;-81
2022/06/16 11:23:19;;;;;;;6.53;2.80;;;30.00;51.50;;;;;;5066488;28;20009;-81
2022/06/16 11:25:46;;;;;;;8.60;3.50;;;30.10;50.60;;;;;;5049861;28;20276;-82
2022/06/16 11:28:15;;;;;;;5.20;3.63;;;30.30;50.20;;;;;;5048459;28;20021;-81
2022/06/16 11:31:00;;;;;;;4.45;3.10;;;30.30;49.10;;;;;;5062958;28;20021;-82
2022/06/16 11:36:53;;;;;;;8.45;3.55;;;30.40;49.30;;;;;;5063152;28;20186;-83
2022/06/16 11:39:23;;;;;;;7.82;3.25;;;30.50;48.00;;;;;;5066960;28;20033;-82
2022/06/16 11:41:51;;;;;;;6.32;3.60;;;30.40;47.80;;;;;;5065380;28;20103;-83
2022/06/16 11:44:24;;;;;;;8.45;4.07;;;30.30;47.80;;;;;;5067185;28;20055;-84
2022/06/16 11:47:11;;;;;;;5.63;3.70;;;30.00;48.70;;;;;;5056180;28;20017;-83
2022/06/16 11:49:59;;;;;;;7.25;3.83;;;29.50;49.80;;;;;;5088832;28;20047;-82
2022/06/16 11:52:37;;;;;;;7.80;3.83;;;29.40;50.00;;;;;;5062664;28;20017;-82
2022/06/16 11:55:27;;;;;;;6.15;2.75;;;29.40;49.70;;;;;;5068286;28;20021;-82
2022/06/16 11:58:11;;;;;;;7.47;3.47;;;29.60;49.20;;;;;;5068113;28;20017;-81
2022/06/16 12:01:08;;;;;;;5.80;3.20;;;29.70;47.20;;;;;;5065878;28;20082;-82
2022/06/16 12:03:50;;;;;;;4.65;2.70;;;29.70;47.30;;;;;;5066411;28;20025;-82
2022/06/16 12:06:45;;;;;;;4.93;2.97;;;29.80;47.60;;;;;;5066477;28;20037;-82
2022/06/16 12:09:42;;;;;;;5.43;3.20;;;30.00;47.80;;;;;;5066355;28;20032;-83
2022/06/16 12:12:28;;;;;;;10.32;3.80;;;30.10;46.70;;;;;;5065727;28;20021;-82
2022/06/16 12:14:54;;;;;;;3.22;2.83;;;30.20;46.30;;;;;;5065191;28;20383;-83
2022/06/16 12:18:07;;;;;;;7.95;2.85;;;30.40;46.70;;;;;;5072673;28;20028;-81
2022/06/16 12:20:50;;;;;;;6.38;3.08;;;30.50;46.60;;;;;;5030988;28;20044;-82
2022/06/16 12:23:52;;;;;;;4.50;3.33;;;30.80;45.10;;;;;;5059529;28;20044;-83
2022/06/16 12:26:32;;;;;;;5.78;2.90;;;30.80;45.50;;;;;;5032412;28;20396;-82
2022/06/16 12:29:19;;;;;;;3.60;3.25;;;30.80;45.90;;;;;;5064827;28;20017;-82
2022/06/16 12:31:51;;;;;;;3.65;2.95;;;30.80;45.80;;;;;;5066353;28;20108;-84
2022/06/16 12:34:42;;;;;;;3.20;2.90;;;31.00;45.80;;;;;;5047996;28;20029;-80
2022/06/16 12:37:21;;;;;;;6.30;3.30;;;31.00;45.80;;;;;;5055797;28;20028;-80
2022/06/16 12:39:58;;;;;;;3.92;3.42;;;31.20;45.70;;;;;;5071502;28;20048;-81
2022/06/16 12:42:29;;;;;;;10.43;4.03;;;30.90;45.80;;;;;;5071843;28;20013;-83
2022/06/16 12:45:05;;;;;;;5.87;3.33;;;30.30;46.80;;;;;;5065410;28;20408;-83
2022/06/16 12:48:05;;;;;;;3.28;2.97;;;29.80;48.10;;;;;;5057691;28;20117;-83
2022/06/16 12:50:39;;;;;;;5.43;3.33;;;30.00;47.20;;;;;;5084278;28;20036;-82
2022/06/16 12:53:36;;;;;;;8.27;4.95;;;30.00;46.50;;;;;;5071684;28;20029;-82
2022/06/16 12:56:15;;;;;;;5.55;3.28;;;29.90;47.30;;;;;;5064596;28;20058;-81
2022/06/16 12:58:54;;;;;;;3.22;2.92;;;30.10;45.80;;;;;;5063828;28;20025;-79
2022/06/16 13:01:20;;;;;;;3.72;2.80;;;30.10;46.10;;;;;;5063461;28;20032;-82
2022/06/16 13:03:46;;;;;;;3.90;2.90;;;30.10;45.50;;;;;;5044738;28;20025;-79
2022/06/16 13:06:13;;;;;;;3.22;2.65;;;30.30;43.10;;;;;;5040782;28;20505;-82
2022/06/16 13:08:44;;;;;;;4.90;3.38;;;30.40;42.90;;;;;;5057970;28;20028;-82
2022/06/16 13:11:22;;;;;;;4.90;3.20;;;30.70;41.40;;;;;;5059447;28;20020;-82
2022/06/16 13:13:55;;;;;;;4.65;2.75;;;30.90;40.70;;;;;;5059861;28;20028;-82
2022/06/16 13:16:27;;;;;;;4.78;2.70;;;30.90;40.30;;;;;;5050972;28;20123;-82
2022/06/16 13:18:57;;;;;;;;;;;30.90;40.80;;;;;;5043502;28;20056;-82
2022/06/16 13:21:29;;;;;;;4.30;2.53;;;31.10;39.30;;;;;;5061927;28;19913;-82
2022/06/16 13:24:33;;;;;;;7.28;3.38;;;31.30;38.40;;;;;;5061422;28;20036;-81
2022/06/16 13:27:22;;;;;;;2.55;2.35;;;31.20;38.40;;;;;;5044334;28;20029;-80
2022/06/16 13:29:57;;;;;;;4.45;3.17;;;31.20;38.20;;;;;;5063081;28;20025;-82
2022/06/16 13:32:29;;;;;;;4.55;2.70;;;31.40;38.20;;;;;;5062659;28;20024;-81
2022/06/16 13:34:56;;;;;;;4.75;2.60;;;31.30;38.70;;;;;;5062439;28;20304;-81
2022/06/16 13:37:29;;;;;;;6.13;3.03;;;31.40;38.90;;;;;;5063506;28;20025;-82
2022/06/16 13:40:25;;;;;;;3.83;2.72;;;31.50;38.60;;;;;;5063449;28;20020;-80
2022/06/16 13:42:53;;;;;;;5.35;2.75;;;31.60;38.20;;;;;;5048194;28;20261;-84